VTREG CYTS-CYMO
Flight info
| Callsign | VTREG |
|---|---|
| Flight time | N/A |
| Altitude | 27000 |
| Route | DURAT |
| Aircraft | SF50/L-BDGRSWY/LB2U2 |
Departure
| Time | N/A |
|---|---|
| Airport | Timmins/Victor M. Power (CYTS) |
Arrival
| Time | 2026-04-17 22:56 |
|---|---|
| Airport | Moosonee Airport (CYMO) |
| Time | Latitude | Longitude | Altitude | Speed | Heading |
|---|---|---|---|---|---|
| 2026-04-17 22:52 | 51.25818 | -80.65486 | 909 ft | 94 kts | 51° |
| 2026-04-17 22:54 | 51.26148 | -80.64978 | 803 ft | 89 kts | 55° |
| 2026-04-17 22:54 | 51.26571 | -80.64290 | 661 ft | 86 kts | 50° |
| 2026-04-17 22:54 | 51.27004 | -80.63640 | 539 ft | 85 kts | 51° |
| 2026-04-17 22:54 | 51.27448 | -80.62989 | 417 ft | 87 kts | 50° |
| 2026-04-17 22:55 | 51.27882 | -80.62337 | 324 ft | 86 kts | 52° |
| 2026-04-17 22:55 | 51.28324 | -80.61648 | 208 ft | 90 kts | 53° |
| 2026-04-17 22:55 | 51.28752 | -80.60979 | 90 ft | 82 kts | 53° |
| 2026-04-17 22:55 | 51.29125 | -80.60412 | 29 ft | 59 kts | 44° |
| 2026-04-17 22:56 | 51.29236 | -80.60247 | 27 ft | 4 kts | 234° |
| 2026-04-17 22:56 | 51.29235 | -80.60249 | 27 ft | 1 kts | 226° |
| 2026-04-17 22:56 | 51.29195 | -80.60308 | 28 ft | 13 kts | 223° |
| 2026-04-17 22:56 | 51.29142 | -80.60389 | 29 ft | 12 kts | 222° |
| 2026-04-17 22:57 | 51.29057 | -80.60522 | 29 ft | 19 kts | 224° |
| 2026-04-17 22:57 | 51.28973 | -80.60652 | 29 ft | 15 kts | 223° |
| 2026-04-17 22:57 | 51.28897 | -80.60765 | 28 ft | 17 kts | 223° |
| 2026-04-17 22:57 | 51.28853 | -80.60885 | 28 ft | 12 kts | 286° |
| 2026-04-17 22:58 | 51.28881 | -80.61035 | 28 ft | 16 kts | 287° |
| 2026-04-17 22:58 | 51.28909 | -80.61177 | 28 ft | 11 kts | 288° |
| 2026-04-17 22:58 | 51.28942 | -80.61253 | 29 ft | 6 kts | 316° |
| 2026-04-17 22:58 | 51.28964 | -80.61288 | 29 ft | 4 kts | 315° |
| 2026-04-17 22:59 | 51.28991 | -80.61378 | 29 ft | 15 kts | 293° |
| 2026-04-17 22:59 | 51.29013 | -80.61517 | 29 ft | 10 kts | 198° |
| 2026-04-17 22:59 | 51.29003 | -80.61516 | 29 ft | 0 kts | 136° |